createdAt,value
2019-03-08T00:01:56.819Z,11.95
2019-03-08T00:04:28.481Z,11.98
2019-03-08T00:06:57.854Z,11.98
2019-03-08T00:09:27.306Z,11.94
2019-03-08T00:11:56.947Z,11.91
2019-03-08T00:14:27.006Z,11.89
2019-03-08T00:16:57.242Z,11.89
2019-03-08T00:19:27.729Z,11.89
2019-03-08T00:21:57.981Z,11.88
2019-03-08T00:24:27.935Z,11.86
2019-03-08T00:26:58.029Z,11.85
2019-03-08T00:29:27.414Z,11.88
2019-03-08T00:31:57.909Z,11.87
2019-03-08T00:34:28.431Z,11.85
2019-03-08T00:36:58.137Z,11.87
2019-03-08T00:39:28.137Z,11.89
2019-03-08T00:42:00.157Z,11.90
2019-03-08T00:44:29.596Z,11.90
2019-03-08T00:46:58.957Z,11.93
2019-03-08T00:49:28.386Z,11.94
2019-03-08T00:51:58.323Z,11.93
2019-03-08T00:54:28.337Z,11.93
2019-03-08T00:57:07.857Z,11.94
2019-03-08T00:59:37.288Z,11.93
2019-03-08T01:02:06.676Z,11.92
2019-03-08T01:04:36.109Z,11.92
2019-03-08T01:07:05.997Z,11.93
2019-03-08T01:09:35.633Z,11.93
2019-03-08T01:12:05.182Z,11.93
2019-03-08T01:14:34.778Z,11.90
2019-03-08T01:17:04.746Z,11.90
2019-03-08T01:19:34.212Z,11.90
2019-03-08T01:22:03.916Z,11.89
2019-03-08T01:24:33.586Z,11.88
2019-03-08T01:27:02.961Z,11.86
2019-03-08T01:29:32.660Z,11.85
2019-03-08T01:32:02.035Z,11.87
2019-03-08T01:34:31.382Z,11.85
2019-03-08T01:37:00.782Z,11.84
2019-03-08T01:39:30.167Z,11.81
2019-03-08T01:41:59.550Z,11.80
2019-03-08T01:44:29.329Z,11.79
2019-03-08T01:46:59.317Z,11.77
2019-03-08T01:49:29.317Z,11.77
2019-03-08T01:51:59.331Z,11.75
2019-03-08T01:54:29.354Z,11.75
2019-03-08T01:56:59.503Z,11.75
2019-03-08T01:59:29.502Z,11.76
2019-03-08T02:01:59.574Z,11.75
2019-03-08T02:04:29.778Z,11.73
2019-03-08T02:06:59.194Z,11.75
2019-03-08T02:09:28.742Z,11.75
2019-03-08T02:11:58.118Z,11.74
2019-03-08T02:14:27.728Z,11.74
2019-03-08T02:16:57.110Z,11.73
2019-03-08T02:19:26.504Z,11.68
2019-03-08T02:21:55.896Z,11.65
2019-03-08T02:24:25.384Z,11.62
2019-03-08T02:26:54.992Z,11.60
2019-03-08T02:29:24.374Z,11.57
2019-03-08T02:31:53.785Z,11.54
2019-03-08T02:34:23.169Z,11.50
2019-03-08T02:36:52.624Z,11.46
2019-03-08T02:39:22.112Z,11.43
2019-03-08T02:41:53.355Z,11.37
2019-03-08T02:44:22.764Z,11.33
2019-03-08T02:46:52.144Z,11.29
2019-03-08T02:49:21.573Z,11.26
2019-03-08T02:51:50.993Z,11.22
2019-03-08T02:54:20.375Z,11.18
2019-03-08T02:56:49.923Z,11.15
2019-03-08T02:59:19.300Z,11.12
2019-03-08T03:01:48.723Z,11.11
2019-03-08T03:04:18.139Z,11.11
2019-03-08T03:06:47.494Z,11.11
2019-03-08T03:09:16.941Z,11.11
2019-03-08T03:11:46.396Z,11.11
2019-03-08T03:14:15.746Z,11.11
2019-03-08T03:16:45.144Z,11.13
2019-03-08T03:19:14.812Z,11.13
2019-03-08T03:21:44.189Z,11.13
2019-03-08T03:24:15.206Z,11.12
2019-03-08T03:26:44.586Z,11.11
2019-03-08T03:29:13.964Z,11.09
2019-03-08T03:31:43.368Z,11.10
2019-03-08T03:34:12.809Z,11.10
2019-03-08T03:36:42.343Z,11.06
2019-03-08T03:39:11.788Z,11.06
2019-03-08T03:41:41.144Z,11.07
2019-03-08T03:44:10.523Z,11.07
2019-03-08T03:46:39.938Z,11.07
2019-03-08T03:49:09.563Z,11.07
2019-03-08T03:51:38.975Z,11.10
2019-03-08T03:54:08.316Z,11.11
2019-03-08T03:56:37.716Z,11.10
2019-03-08T03:59:07.090Z,11.10
2019-03-08T04:01:38.174Z,11.11
2019-03-08T04:04:07.560Z,11.11
2019-03-08T04:06:37.028Z,11.12
2019-03-08T04:09:10.969Z,11.12
2019-03-08T04:11:41.394Z,11.12
2019-03-08T04:14:10.753Z,11.13
2019-03-08T04:16:40.351Z,11.12
2019-03-08T04:19:11.745Z,11.11
2019-03-08T04:21:40.818Z,11.10
2019-03-08T04:24:10.175Z,11.11
2019-03-08T04:26:39.577Z,11.10
2019-03-08T04:29:09.056Z,11.11
2019-03-08T04:31:38.445Z,11.08
2019-03-08T04:34:07.829Z,11.10
2019-03-08T04:36:37.508Z,11.09
2019-03-08T04:39:09.263Z,11.12
2019-03-08T04:41:38.670Z,11.14
2019-03-08T04:44:08.226Z,11.16
2019-03-08T04:46:37.613Z,11.16
2019-03-08T04:49:07.240Z,11.15
2019-03-08T04:51:36.643Z,11.16
2019-03-08T04:54:06.306Z,11.17
2019-03-08T04:56:35.661Z,11.16
2019-03-08T04:59:05.176Z,11.18
2019-03-08T05:01:34.650Z,11.18
2019-03-08T05:04:04.130Z,11.18
2019-03-08T05:06:34.119Z,11.17
2019-03-08T05:09:05.402Z,11.12
2019-03-08T05:11:34.873Z,11.06
2019-03-08T05:14:04.368Z,10.96
2019-03-08T05:16:34.130Z,10.87
2019-03-08T05:19:04.581Z,10.74
2019-03-08T05:21:34.590Z,10.64
2019-03-08T05:24:04.304Z,10.56
2019-03-08T05:26:34.358Z,10.50
2019-03-08T05:29:04.320Z,10.46
2019-03-08T05:31:33.791Z,10.40
2019-03-08T05:34:03.231Z,10.37
2019-03-08T05:36:32.586Z,10.36
2019-03-08T05:39:02.292Z,10.34
2019-03-08T05:41:31.689Z,10.34
2019-03-08T05:44:01.262Z,10.34
2019-03-08T05:46:30.714Z,10.35
2019-03-08T05:49:00.218Z,10.34
2019-03-08T05:51:29.912Z,10.35
2019-03-08T05:53:59.315Z,10.37
2019-03-08T05:56:28.965Z,10.38
2019-03-08T05:58:58.424Z,10.40
2019-03-08T06:01:27.936Z,10.41
2019-03-08T06:03:57.405Z,10.40
2019-03-08T06:06:28.834Z,10.46
2019-03-08T06:08:58.238Z,10.45
2019-03-08T06:11:27.721Z,10.43
2019-03-08T06:13:57.121Z,10.46
2019-03-08T06:16:26.603Z,10.48
2019-03-08T06:18:56.241Z,10.49
2019-03-08T06:21:28.697Z,10.51
2019-03-08T06:23:58.129Z,10.51
2019-03-08T06:26:27.546Z,10.50
2019-03-08T06:28:56.995Z,10.52
2019-03-08T06:31:45.772Z,10.51
2019-03-08T06:34:15.277Z,10.53
2019-03-08T06:36:44.775Z,10.55
2019-03-08T06:39:14.565Z,10.57
2019-03-08T06:41:44.002Z,10.58
2019-03-08T06:44:13.796Z,10.58
2019-03-08T06:46:46.990Z,10.60
2019-03-08T06:49:23.573Z,10.57
2019-03-08T06:51:52.976Z,10.57
2019-03-08T06:54:22.554Z,10.54
2019-03-08T06:56:53.041Z,10.53
2019-03-08T06:59:26.921Z,10.54
2019-03-08T07:01:56.263Z,10.52
2019-03-08T07:04:25.649Z,10.51
2019-03-08T07:06:55.040Z,10.51
2019-03-08T07:09:24.394Z,10.54
2019-03-08T07:11:53.968Z,10.58
2019-03-08T07:14:23.579Z,10.60
2019-03-08T07:16:53.037Z,10.65
2019-03-08T07:19:22.409Z,10.71
2019-03-08T07:22:05.128Z,10.78
2019-03-08T07:24:40.558Z,10.83
2019-03-08T07:27:26.500Z,10.85
2019-03-08T07:29:57.520Z,10.80
2019-03-08T07:32:28.914Z,10.83
2019-03-08T07:35:17.743Z,10.85
2019-03-08T07:37:52.098Z,10.86
2019-03-08T07:40:32.026Z,10.90
2019-03-08T07:43:03.046Z,10.93
2019-03-08T07:45:37.008Z,11.00
2019-03-08T07:48:24.405Z,11.11
2019-03-08T07:51:01.188Z,11.18
2019-03-08T07:53:32.441Z,11.21
2019-03-08T07:56:03.493Z,11.25
2019-03-08T07:58:43.669Z,11.26
2019-03-08T08:01:20.520Z,11.27
2019-03-08T08:04:00.612Z,11.26
2019-03-08T08:06:31.637Z,11.26
2019-03-08T08:09:02.744Z,11.32
2019-03-08T08:11:33.772Z,11.43
2019-03-08T08:14:07.563Z,11.53
2019-03-08T08:16:41.220Z,11.62
2019-03-08T08:19:20.848Z,11.67
2019-03-08T08:21:54.600Z,11.63
2019-03-08T08:24:28.613Z,11.60
2019-03-08T08:26:59.893Z,11.56
2019-03-08T08:29:35.027Z,11.57
2019-03-08T08:32:06.733Z,11.59
2019-03-08T08:34:37.829Z,11.61
2019-03-08T08:37:11.528Z,11.64
2019-03-08T08:39:42.755Z,11.68
2019-03-08T08:42:14.121Z,11.77
2019-03-08T08:44:45.153Z,11.93
2019-03-08T08:47:20.353Z,12.12
2019-03-08T08:50:06.421Z,12.24
2019-03-08T08:52:54.201Z,12.36
2019-03-08T08:55:31.564Z,12.43
2019-03-08T08:58:05.885Z,12.42
2019-03-08T09:00:41.024Z,12.38
2019-03-08T09:03:21.133Z,12.36
2019-03-08T09:06:20.454Z,12.32
2019-03-08T09:09:06.653Z,12.31
2019-03-08T09:11:45.911Z,12.38
2019-03-08T09:14:13.247Z,12.49
2019-03-08T09:16:58.956Z,12.57
2019-03-08T09:19:42.043Z,12.56
2019-03-08T09:22:28.403Z,12.56
2019-03-08T09:25:08.174Z,12.51
2019-03-08T09:27:41.912Z,12.49
2019-03-08T09:30:16.081Z,12.48
2019-03-08T09:32:59.662Z,12.48
2019-03-08T09:35:33.133Z,12.53
2019-03-08T09:38:04.147Z,12.65
2019-03-08T09:40:35.147Z,12.83
2019-03-08T09:43:06.244Z,13.15
2019-03-08T09:45:54.197Z,13.43
2019-03-08T09:48:25.593Z,13.65
2019-03-08T09:50:59.116Z,13.82
2019-03-08T09:53:30.460Z,13.99
2019-03-08T09:56:13.465Z,14.24
2019-03-08T09:58:50.725Z,14.34
2019-03-08T10:01:21.729Z,14.33
2019-03-08T10:03:55.434Z,14.36
2019-03-08T10:06:29.194Z,14.63
2019-03-08T10:09:16.500Z,15.12
2019-03-08T10:11:59.087Z,15.50
2019-03-08T10:14:46.093Z,15.64
2019-03-08T10:17:22.562Z,15.66
2019-03-08T10:19:59.575Z,15.60
2019-03-08T10:22:46.966Z,15.55
2019-03-08T10:25:34.076Z,15.45
2019-03-08T10:28:21.257Z,15.33
2019-03-08T10:31:08.357Z,15.28
2019-03-08T10:33:46.291Z,15.45
2019-03-08T10:36:28.819Z,15.65
2019-03-08T10:39:02.237Z,15.81
2019-03-08T10:41:38.669Z,15.82
2019-03-08T10:44:12.543Z,15.80
2019-03-08T10:46:54.607Z,15.78
2019-03-08T10:49:25.624Z,15.86
2019-03-08T10:52:17.145Z,15.90
2019-03-08T10:54:46.966Z,15.82
2019-03-08T10:57:18.005Z,15.72
2019-03-08T10:59:57.887Z,15.64
2019-03-08T11:02:31.341Z,15.46
2019-03-08T11:05:11.508Z,15.27
2019-03-08T11:07:42.865Z,15.01
2019-03-08T11:10:20.847Z,14.81
2019-03-08T11:12:54.254Z,14.73
2019-03-08T11:15:25.273Z,14.83
2019-03-08T11:17:58.927Z,14.90
2019-03-08T11:20:46.495Z,14.91
2019-03-08T11:23:33.060Z,14.82
2019-03-08T11:26:04.106Z,14.76
2019-03-08T11:28:51.523Z,14.67
2019-03-08T11:31:37.591Z,14.61
2019-03-08T11:34:08.591Z,14.66
2019-03-08T11:36:39.616Z,14.71
2019-03-08T11:39:39.200Z,14.78
2019-03-08T11:42:10.241Z,14.77
2019-03-08T11:44:56.108Z,14.82
2019-03-08T11:47:32.819Z,15.07
2019-03-08T11:50:06.232Z,15.44
2019-03-08T11:52:37.247Z,15.80
2019-03-08T11:55:19.270Z,16.08
2019-03-08T11:57:50.298Z,16.34
2019-03-08T12:00:24.164Z,16.58
2019-03-08T12:03:11.366Z,16.69
2019-03-08T12:05:49.868Z,16.64
2019-03-08T12:08:24.021Z,16.61
2019-03-08T12:11:32.221Z,16.49
2019-03-08T12:14:19.342Z,16.23
2019-03-08T12:16:57.051Z,16.07
2019-03-08T12:19:36.947Z,15.96
2019-03-08T12:22:10.592Z,15.81
2019-03-08T12:24:41.591Z,15.67
2019-03-08T12:27:24.464Z,15.56
2019-03-08T12:29:55.701Z,15.49
2019-03-08T12:32:26.974Z,15.42
2019-03-08T12:35:00.662Z,15.40
2019-03-08T12:37:31.671Z,15.41
2019-03-08T12:40:17.317Z,15.44
2019-03-08T12:42:48.334Z,15.46
2019-03-08T12:45:21.766Z,15.54
2019-03-08T12:48:04.667Z,15.59
2019-03-08T12:50:51.615Z,15.61
2019-03-08T12:53:24.425Z,15.59
2019-03-08T12:56:07.352Z,15.63
2019-03-08T12:58:46.981Z,15.67
2019-03-08T13:01:18.041Z,15.76
2019-03-08T13:04:04.938Z,15.88
2019-03-08T13:06:36.350Z,15.97
2019-03-08T13:09:21.203Z,16.10
2019-03-08T13:11:50.560Z,16.29
2019-03-08T13:14:19.921Z,16.53
2019-03-08T13:16:49.288Z,16.71
2019-03-08T13:19:18.976Z,16.89
2019-03-08T13:21:48.362Z,17.01
2019-03-08T13:24:17.732Z,17.02
2019-03-08T13:26:47.093Z,17.02
2019-03-08T13:29:16.464Z,17.01
2019-03-08T13:31:45.829Z,16.99
2019-03-08T13:34:15.269Z,16.94
2019-03-08T13:36:45.008Z,16.89
2019-03-08T13:39:14.383Z,16.82
2019-03-08T13:41:43.747Z,16.75
2019-03-08T13:44:14.724Z,16.68
2019-03-08T13:46:44.093Z,16.64
2019-03-08T13:49:13.495Z,16.62
2019-03-08T13:51:42.873Z,16.61
2019-03-08T13:54:12.254Z,16.63
2019-03-08T13:56:41.634Z,16.63
2019-03-08T13:59:11.005Z,16.62
2019-03-08T14:01:40.363Z,16.62
2019-03-08T14:04:10.348Z,16.61
2019-03-08T14:06:40.385Z,16.59
2019-03-08T14:09:09.934Z,16.57
2019-03-08T14:11:39.313Z,16.53
2019-03-08T14:14:08.686Z,16.49
2019-03-08T14:16:38.346Z,16.47
2019-03-08T14:19:07.787Z,16.46
2019-03-08T14:21:37.157Z,16.45
2019-03-08T14:24:06.603Z,16.38
2019-03-08T14:26:37.106Z,16.31
2019-03-08T14:29:06.620Z,16.22
2019-03-08T14:31:38.188Z,16.13
2019-03-08T14:34:10.778Z,16.05
2019-03-08T14:36:39.172Z,15.97
2019-03-08T14:39:09.942Z,15.92
2019-03-08T14:41:43.584Z,15.83
2019-03-08T14:44:14.684Z,15.72
2019-03-08T14:46:48.344Z,15.64
2019-03-08T14:49:19.279Z,15.55
2019-03-08T14:51:49.653Z,15.44
2019-03-08T14:54:19.130Z,15.35
2019-03-08T14:56:48.501Z,15.29
2019-03-08T14:59:17.867Z,15.26
2019-03-08T15:01:47.230Z,15.17
2019-03-08T15:04:16.602Z,15.13
2019-03-08T15:06:45.975Z,15.07
2019-03-08T15:09:15.524Z,15.02
2019-03-08T15:11:44.901Z,15.01
2019-03-08T15:14:14.264Z,15.03
2019-03-08T15:16:43.629Z,15.04
2019-03-08T15:19:13.137Z,15.09
2019-03-08T15:21:48.427Z,15.12
2019-03-08T15:24:14.690Z,15.12
2019-03-08T15:26:44.052Z,15.15
2019-03-08T15:29:13.650Z,15.15
2019-03-08T15:31:43.766Z,15.14
2019-03-08T15:34:14.585Z,15.10
2019-03-08T15:36:44.712Z,15.02
2019-03-08T15:39:14.334Z,14.96
2019-03-08T15:41:43.707Z,14.91
2019-03-08T15:44:13.083Z,14.93
2019-03-08T15:46:42.456Z,14.93
2019-03-08T15:49:11.833Z,14.91
2019-03-08T15:51:41.208Z,14.84
2019-03-08T15:54:10.573Z,14.80
2019-03-08T15:56:39.945Z,14.74
2019-03-08T15:59:09.488Z,14.69
2019-03-08T16:01:39.183Z,14.62
2019-03-08T16:04:12.170Z,14.54
2019-03-08T16:06:43.394Z,14.45
2019-03-08T16:09:10.922Z,14.35
2019-03-08T16:11:41.079Z,14.26
2019-03-08T16:14:10.447Z,14.19
2019-03-08T16:16:39.898Z,14.12
2019-03-08T16:19:09.258Z,14.03
2019-03-08T16:21:38.633Z,13.96
2019-03-08T16:24:08.329Z,13.88
2019-03-08T16:26:37.703Z,13.82
2019-03-08T16:29:06.957Z,13.75
2019-03-08T16:31:40.412Z,13.71
2019-03-08T16:34:11.087Z,13.66
2019-03-08T16:36:41.779Z,13.61
2019-03-08T16:39:18.454Z,13.57
2019-03-08T16:41:49.215Z,13.54
2019-03-08T16:44:25.720Z,13.49
2019-03-08T16:46:56.401Z,13.45
2019-03-08T16:49:48.092Z,13.40
2019-03-08T16:52:23.216Z,13.33
2019-03-08T16:55:09.643Z,13.27
2019-03-08T16:57:57.222Z,13.21
2019-03-08T17:00:44.428Z,13.13
2019-03-08T17:03:27.486Z,13.05
2019-03-08T17:06:01.700Z,13.01
2019-03-08T17:08:35.175Z,12.99
2019-03-08T17:11:12.005Z,12.97
2019-03-08T17:13:48.714Z,12.95
2019-03-08T17:16:19.727Z,12.91
2019-03-08T17:18:56.512Z,12.90
2019-03-08T17:21:28.743Z,12.87
2019-03-08T17:24:16.360Z,12.87
2019-03-08T17:26:47.668Z,12.82
2019-03-08T17:29:18.686Z,12.84
2019-03-08T17:31:49.689Z,12.84
2019-03-08T17:34:37.114Z,12.85
2019-03-08T17:37:08.137Z,12.82
2019-03-08T17:39:54.095Z,12.80
2019-03-08T17:42:39.913Z,12.77
2019-03-08T17:45:27.805Z,12.72
2019-03-08T17:48:01.909Z,12.66
2019-03-08T17:50:36.024Z,12.63
2019-03-08T17:53:23.091Z,12.62
2019-03-08T17:55:56.799Z,12.58
2019-03-08T17:58:27.822Z,12.55
2019-03-08T18:00:58.843Z,12.54
2019-03-08T18:03:32.573Z,12.55
2019-03-08T18:06:06.247Z,12.55
2019-03-08T18:08:43.227Z,12.54
2019-03-08T18:11:30.141Z,12.53
2019-03-08T18:14:09.786Z,12.48
2019-03-08T18:16:43.457Z,12.48
2019-03-08T18:19:17.239Z,12.46
2019-03-08T18:21:50.907Z,12.45
2019-03-08T18:24:23.823Z,12.47
2019-03-08T18:27:06.749Z,12.47
2019-03-08T18:29:49.780Z,12.43
2019-03-08T18:32:20.786Z,12.41
2019-03-08T18:35:00.592Z,12.43
2019-03-08T18:37:34.048Z,12.41
2019-03-08T18:40:20.384Z,12.40
2019-03-08T18:43:07.566Z,12.37
2019-03-08T18:45:38.767Z,12.33
2019-03-08T18:48:12.448Z,12.36
2019-03-08T18:50:49.981Z,12.36
2019-03-08T18:53:27.082Z,12.38
2019-03-08T18:55:59.247Z,12.37
2019-03-08T18:58:33.354Z,12.38
2019-03-08T19:01:20.485Z,12.37
2019-03-08T19:03:57.193Z,12.37
2019-03-08T19:06:41.447Z,12.37
2019-03-08T19:09:15.144Z,12.36
2019-03-08T19:11:46.146Z,12.38
2019-03-08T19:14:35.190Z,12.41
2019-03-08T19:17:11.934Z,12.38
2019-03-08T19:19:42.964Z,12.38
2019-03-08T19:22:26.149Z,12.40
2019-03-08T19:24:50.190Z,12.39
2019-03-08T19:27:21.203Z,12.39
2019-03-08T19:29:52.294Z,12.41
2019-03-08T19:32:23.560Z,12.41
2019-03-08T19:34:54.579Z,12.42
2019-03-08T19:37:25.587Z,12.40
2019-03-08T19:40:05.936Z,12.39
2019-03-08T19:42:39.709Z,12.36
2019-03-08T19:45:28.641Z,12.36
2019-03-08T19:48:08.886Z,12.33
2019-03-08T19:50:48.441Z,12.31
2019-03-08T19:53:19.448Z,12.31
2019-03-08T19:56:03.925Z,12.31
2019-03-08T19:58:51.245Z,12.29
2019-03-08T20:01:34.445Z,12.25
2019-03-08T20:04:17.181Z,12.22
2019-03-08T20:06:48.417Z,12.19
2019-03-08T20:09:36.468Z,12.18
2019-03-08T20:12:07.571Z,12.15
2019-03-08T20:14:44.084Z,12.15
2019-03-08T20:17:17.723Z,12.14
2019-03-08T20:19:48.723Z,12.16
2019-03-08T20:22:34.983Z,12.19
2019-03-08T20:25:23.391Z,12.17
2019-03-08T20:27:54.399Z,12.19
2019-03-08T20:30:40.473Z,12.22
2019-03-08T20:33:29.185Z,12.21
2019-03-08T20:36:02.864Z,12.20
2019-03-08T20:38:36.513Z,12.24
2019-03-08T20:41:10.148Z,12.25
2019-03-08T20:43:41.161Z,12.25
2019-03-08T20:46:12.178Z,12.27
2019-03-08T20:48:41.835Z,12.28
2019-03-08T20:51:30.819Z,12.29
2019-03-08T20:54:00.448Z,12.31
2019-03-08T20:56:29.827Z,12.34
2019-03-08T20:58:59.509Z,12.36
2019-03-08T21:01:28.887Z,12.38
2019-03-08T21:03:58.254Z,12.40
2019-03-08T21:06:27.628Z,12.39
2019-03-08T21:08:57.321Z,12.39
2019-03-08T21:11:27.590Z,12.41
2019-03-08T21:13:57.244Z,12.44
2019-03-08T21:16:26.943Z,12.46
2019-03-08T21:18:56.310Z,12.46
2019-03-08T21:21:25.691Z,12.48
2019-03-08T21:23:55.057Z,12.49
2019-03-08T21:26:24.495Z,12.49
2019-03-08T21:28:53.870Z,12.49
2019-03-08T21:31:23.227Z,12.48
2019-03-08T21:33:52.611Z,12.52
2019-03-08T21:36:21.981Z,12.50
2019-03-08T21:38:51.624Z,12.51
2019-03-08T21:41:20.994Z,12.51
2019-03-08T21:43:50.387Z,12.51
2019-03-08T21:46:19.744Z,12.52
2019-03-08T21:48:49.157Z,12.54
2019-03-08T21:51:18.493Z,12.56
2019-03-08T21:53:48.117Z,12.59
2019-03-08T21:56:17.483Z,12.63
2019-03-08T21:58:46.858Z,12.65
2019-03-08T22:01:16.219Z,12.65
2019-03-08T22:03:47.262Z,12.64
2019-03-08T22:06:16.616Z,12.66
2019-03-08T22:08:53.047Z,12.70
2019-03-08T22:11:24.375Z,12.70
2019-03-08T22:13:53.751Z,12.67
2019-03-08T22:16:23.128Z,12.65
2019-03-08T22:18:52.496Z,12.63
2019-03-08T22:21:22.186Z,12.60
2019-03-08T22:23:51.564Z,12.59
2019-03-08T22:26:20.931Z,12.56
2019-03-08T22:28:50.486Z,12.54
2019-03-08T22:31:19.916Z,12.54
2019-03-08T22:33:49.301Z,12.53
2019-03-08T22:36:18.654Z,12.54
2019-03-08T22:38:48.280Z,12.56
2019-03-08T22:41:17.927Z,12.56
2019-03-08T22:43:47.299Z,12.56
2019-03-08T22:46:16.734Z,12.57
2019-03-08T22:48:46.114Z,12.59
2019-03-08T22:51:15.476Z,12.61
2019-03-08T22:53:45.226Z,12.63
2019-03-08T22:56:14.595Z,12.63
2019-03-08T22:58:43.981Z,12.63
2019-03-08T23:01:18.542Z,12.65
2019-03-08T23:03:47.911Z,12.66
2019-03-08T23:06:17.531Z,12.67
2019-03-08T23:08:47.142Z,12.67
2019-03-08T23:11:16.512Z,12.70
2019-03-08T23:13:45.900Z,12.70
2019-03-08T23:16:15.251Z,12.68
2019-03-08T23:18:44.908Z,12.68
2019-03-08T23:21:14.275Z,12.66
2019-03-08T23:23:43.638Z,12.65
2019-03-08T23:26:13.023Z,12.63
2019-03-08T23:28:44.028Z,12.61
2019-03-08T23:31:23.764Z,12.60
2019-03-08T23:33:53.133Z,12.57
2019-03-08T23:36:22.729Z,12.54
2019-03-08T23:38:52.096Z,12.53
2019-03-08T23:41:22.089Z,12.52
2019-03-08T23:43:51.460Z,12.52
2019-03-08T23:46:21.154Z,12.51
2019-03-08T23:48:52.059Z,12.53
2019-03-08T23:51:21.848Z,12.53
2019-03-08T23:53:51.385Z,12.57
2019-03-08T23:56:21.007Z,12.60
2019-03-08T23:58:50.380Z,12.63
